createdAt,value
2023-05-05T00:00:28.600Z,203.51
2023-05-05T00:01:28.556Z,199.52
2023-05-05T00:02:28.675Z,196.29
2023-05-05T00:03:28.748Z,193.03
2023-05-05T00:04:28.671Z,187.95
2023-05-05T00:05:28.713Z,182.59
2023-05-05T00:06:28.824Z,183.16
2023-05-05T00:07:28.825Z,181.08
2023-05-05T00:08:28.851Z,180.15
2023-05-05T00:09:28.874Z,179.99
2023-05-05T00:10:29.221Z,180.79
2023-05-05T00:11:28.908Z,184.26
2023-05-05T00:12:28.976Z,185.77
2023-05-05T00:13:28.962Z,186.11
2023-05-05T00:14:28.969Z,186.23
2023-05-05T00:15:29.047Z,195.92
2023-05-05T00:16:29.098Z,205.36
2023-05-05T00:17:29.061Z,208.29
2023-05-05T00:18:29.092Z,207.70
2023-05-05T00:19:29.064Z,207.16
2023-05-05T00:20:29.045Z,210.33
2023-05-05T00:21:29.159Z,214.53
2023-05-05T00:22:29.113Z,216.17
2023-05-05T00:23:29.161Z,220.09
2023-05-05T00:24:29.186Z,220.48
2023-05-05T00:25:29.182Z,222.91
2023-05-05T00:26:29.248Z,225.37
2023-05-05T00:27:29.211Z,222.34
2023-05-05T00:28:29.173Z,220.52
2023-05-05T00:29:29.228Z,221.03
2023-05-05T00:30:29.198Z,224.33
2023-05-05T00:31:29.305Z,225.47
2023-05-05T00:32:29.292Z,225.80
2023-05-05T00:33:29.266Z,227.05
2023-05-05T00:34:29.235Z,226.55
2023-05-05T00:35:29.246Z,226.98
2023-05-05T00:36:29.233Z,227.76
2023-05-05T00:37:29.265Z,228.91
2023-05-05T00:38:29.292Z,228.01
2023-05-05T00:39:29.294Z,225.71
2023-05-05T00:40:29.304Z,226.03
2023-05-05T00:41:29.309Z,227.97
2023-05-05T00:42:29.333Z,230.41
2023-05-05T00:43:29.351Z,231.54
2023-05-05T00:44:29.431Z,230.96
2023-05-05T00:45:29.488Z,229.69
2023-05-05T00:46:29.615Z,229.47
2023-05-05T00:47:29.546Z,229.75
2023-05-05T00:48:29.591Z,230.20
2023-05-05T00:49:29.697Z,230.42
2023-05-05T00:50:29.669Z,231.20
2023-05-05T00:51:29.739Z,232.18
2023-05-05T00:52:29.738Z,231.81
2023-05-05T00:53:29.811Z,231.65
2023-05-05T00:54:29.831Z,229.20
2023-05-05T00:55:29.901Z,228.16
2023-05-05T00:56:29.988Z,228.98
2023-05-05T00:57:30.008Z,229.38
2023-05-05T00:58:30.027Z,234.79
2023-05-05T00:59:30.127Z,234.90
2023-05-05T01:00:30.143Z,234.84
2023-05-05T01:01:30.285Z,238.12
2023-05-05T01:02:30.300Z,238.81
2023-05-05T01:03:30.356Z,238.22
2023-05-05T01:04:30.314Z,238.20
2023-05-05T01:05:30.318Z,238.62
2023-05-05T01:06:30.338Z,238.14
2023-05-05T01:07:30.358Z,235.02
2023-05-05T01:08:30.424Z,233.59
2023-05-05T01:09:30.446Z,231.49
2023-05-05T01:10:30.491Z,228.57
2023-05-05T01:11:30.526Z,225.50
2023-05-05T01:12:30.647Z,222.60
2023-05-05T01:13:30.593Z,221.18
2023-05-05T01:14:30.594Z,221.08
2023-05-05T01:15:30.605Z,223.00
2023-05-05T01:16:30.606Z,225.33
2023-05-05T01:17:30.607Z,225.85
2023-05-05T01:18:30.573Z,228.00
2023-05-05T01:19:30.652Z,231.75
2023-05-05T01:20:30.669Z,232.43
2023-05-05T01:21:30.674Z,230.69
2023-05-05T01:22:30.708Z,227.97
2023-05-05T01:23:30.724Z,227.03
2023-05-05T01:24:30.770Z,225.87
2023-05-05T01:25:30.802Z,224.82
2023-05-05T01:26:30.818Z,225.50
2023-05-05T01:27:30.844Z,227.27
2023-05-05T01:28:30.936Z,231.07
2023-05-05T01:29:30.941Z,233.17
2023-05-05T01:30:30.980Z,234.05
2023-05-05T01:31:31.007Z,235.50
2023-05-05T01:32:30.973Z,237.00
2023-05-05T01:33:31.059Z,237.67
2023-05-05T01:34:31.084Z,236.63
2023-05-05T01:35:31.173Z,236.52
2023-05-05T01:36:31.173Z,236.84
2023-05-05T01:37:31.167Z,236.73
2023-05-05T01:38:31.166Z,237.20
2023-05-05T01:39:31.194Z,237.36
2023-05-05T01:40:31.296Z,237.89
2023-05-05T01:41:31.585Z,237.43
2023-05-05T01:42:31.398Z,235.89
2023-05-05T01:43:31.447Z,237.01
2023-05-05T01:44:31.583Z,239.01
2023-05-05T01:45:31.604Z,240.24
2023-05-05T01:46:31.636Z,241.12
2023-05-05T01:47:31.709Z,242.83
2023-05-05T01:48:31.741Z,243.13
2023-05-05T01:49:31.681Z,241.17
2023-05-05T01:50:31.718Z,240.40
2023-05-05T01:51:31.747Z,240.19
2023-05-05T01:52:31.819Z,242.18
2023-05-05T01:53:31.887Z,241.62
2023-05-05T01:54:31.940Z,241.50
2023-05-05T01:55:31.998Z,242.77
2023-05-05T01:56:31.969Z,245.96
2023-05-05T01:57:32.000Z,245.89
2023-05-05T01:58:32.013Z,245.93
2023-05-05T01:59:32.031Z,246.14
2023-05-05T02:00:32.033Z,246.48
2023-05-05T02:01:32.057Z,246.04
2023-05-05T02:02:32.148Z,247.46
2023-05-05T02:03:32.069Z,248.20
2023-05-05T02:04:32.104Z,248.49
2023-05-05T02:05:32.113Z,248.44
2023-05-05T02:06:32.175Z,246.71
2023-05-05T02:07:32.140Z,243.79
2023-05-05T02:08:32.168Z,241.81
2023-05-05T02:09:32.263Z,241.19
2023-05-05T02:10:32.282Z,242.75
2023-05-05T02:11:32.383Z,243.51
2023-05-05T02:12:32.458Z,244.99
2023-05-05T02:13:32.486Z,246.79
2023-05-05T02:14:32.446Z,248.30
2023-05-05T02:15:32.457Z,250.00
2023-05-05T02:16:32.522Z,250.21
2023-05-05T02:17:32.494Z,249.98
2023-05-05T02:18:32.512Z,248.58
2023-05-05T02:19:32.559Z,245.91
2023-05-05T02:20:32.575Z,245.82
2023-05-05T02:21:32.546Z,245.26
2023-05-05T02:22:32.553Z,246.74
2023-05-05T02:23:32.543Z,249.95
2023-05-05T02:24:32.602Z,249.92
2023-05-05T02:25:32.627Z,249.72
2023-05-05T02:26:32.617Z,250.00
2023-05-05T02:27:32.640Z,250.00
2023-05-05T02:28:32.615Z,250.01
2023-05-05T02:29:32.650Z,250.39
2023-05-05T02:30:32.652Z,250.00
2023-05-05T02:31:32.726Z,249.12
2023-05-05T02:32:32.659Z,248.53
2023-05-05T02:33:32.592Z,247.77
2023-05-05T02:34:32.628Z,246.47
2023-05-05T02:35:32.637Z,243.40
2023-05-05T02:36:32.680Z,241.47
2023-05-05T02:37:32.713Z,239.76
2023-05-05T02:38:32.690Z,236.69
2023-05-05T02:39:32.736Z,233.93
2023-05-05T02:40:32.758Z,233.02
2023-05-05T02:41:32.816Z,233.04
2023-05-05T02:42:32.810Z,233.09
2023-05-05T02:43:32.825Z,233.05
2023-05-05T02:44:32.873Z,232.31
2023-05-05T02:45:32.959Z,232.44
2023-05-05T02:46:33.082Z,232.55
2023-05-05T02:47:33.106Z,233.38
2023-05-05T02:48:33.132Z,234.70
2023-05-05T02:49:33.122Z,236.30
2023-05-05T02:50:33.161Z,238.54
2023-05-05T02:51:33.178Z,241.26
2023-05-05T02:52:33.142Z,244.04
2023-05-05T02:53:33.157Z,246.18
2023-05-05T02:54:33.191Z,248.01
2023-05-05T02:55:33.237Z,249.35
2023-05-05T02:56:33.283Z,249.91
2023-05-05T02:57:33.357Z,249.79
2023-05-05T02:58:33.441Z,249.63
2023-05-05T02:59:33.465Z,248.45
2023-05-05T03:00:33.508Z,246.28
2023-05-05T03:01:33.522Z,243.29
2023-05-05T03:02:33.605Z,241.90
2023-05-05T03:03:33.630Z,241.00
2023-05-05T03:04:33.520Z,240.24
2023-05-05T03:05:33.532Z,239.82
2023-05-05T03:06:33.612Z,238.65
2023-05-05T03:07:33.601Z,236.81
2023-05-05T03:08:33.580Z,236.82
2023-05-05T03:09:33.557Z,235.30
2023-05-05T03:10:33.581Z,233.23
2023-05-05T03:11:33.643Z,232.24
2023-05-05T03:12:33.715Z,232.28
2023-05-05T03:13:33.751Z,232.77
2023-05-05T03:14:33.751Z,234.15
2023-05-05T03:15:33.776Z,233.25
2023-05-05T03:16:33.853Z,233.14
2023-05-05T03:17:33.843Z,232.46
2023-05-05T03:18:33.802Z,232.21
2023-05-05T03:19:33.849Z,233.43
2023-05-05T03:20:33.807Z,234.24
2023-05-05T03:21:33.862Z,235.79
2023-05-05T03:22:33.909Z,237.25
2023-05-05T03:23:33.958Z,238.47
2023-05-05T03:24:34.041Z,238.84
2023-05-05T03:25:34.054Z,239.30
2023-05-05T03:26:34.106Z,238.92
2023-05-05T03:27:34.160Z,236.66
2023-05-05T03:28:34.157Z,236.80
2023-05-05T03:29:34.196Z,238.30
2023-05-05T03:30:34.192Z,239.75
2023-05-05T03:31:34.252Z,241.39
2023-05-05T03:32:34.289Z,242.70
2023-05-05T03:33:34.261Z,243.36
2023-05-05T03:34:34.287Z,243.92
2023-05-05T03:35:34.341Z,245.34
2023-05-05T03:36:34.339Z,247.90
2023-05-05T03:37:34.341Z,249.16
2023-05-05T03:38:34.350Z,249.23
2023-05-05T03:39:34.361Z,249.80
2023-05-05T03:40:43.419Z,249.52
2023-05-05T03:41:35.381Z,248.00
2023-05-05T03:42:34.305Z,247.28
2023-05-05T03:43:34.401Z,242.30
2023-05-05T03:44:34.316Z,242.43
2023-05-05T03:45:34.326Z,243.43
2023-05-05T03:46:34.301Z,244.98
2023-05-05T03:47:34.324Z,246.96
2023-05-05T03:48:34.320Z,248.52
2023-05-05T03:49:34.299Z,249.49
2023-05-05T03:50:34.249Z,249.73
2023-05-05T03:51:34.427Z,248.11
2023-05-05T03:52:34.382Z,246.40
2023-05-05T03:53:34.492Z,243.42
2023-05-05T03:54:34.562Z,240.83
2023-05-05T03:55:34.579Z,235.96
2023-05-05T03:56:34.598Z,229.66
2023-05-05T03:57:34.600Z,228.27
2023-05-05T03:58:34.637Z,226.79
2023-05-05T03:59:34.620Z,230.85
2023-05-05T04:00:34.715Z,235.53
2023-05-05T04:01:34.765Z,239.00
2023-05-05T04:02:34.811Z,241.45
2023-05-05T04:03:34.798Z,241.51
2023-05-05T04:04:34.914Z,240.27
2023-05-05T04:05:34.839Z,239.13
2023-05-05T04:06:34.951Z,238.18
2023-05-05T04:07:35.953Z,238.42
2023-05-05T04:08:35.015Z,241.42
2023-05-05T04:09:35.069Z,240.52
2023-05-05T04:10:35.134Z,241.78
2023-05-05T04:11:35.607Z,237.81
2023-05-05T04:12:35.214Z,235.63
2023-05-05T04:13:35.293Z,235.89
2023-05-05T04:14:35.316Z,235.80
2023-05-05T04:15:35.324Z,235.20
2023-05-05T04:16:35.318Z,233.33
2023-05-05T04:17:35.384Z,231.93
2023-05-05T04:18:35.326Z,231.70
2023-05-05T04:19:35.334Z,234.11
2023-05-05T04:20:35.355Z,237.51
2023-05-05T04:21:35.449Z,241.22
2023-05-05T04:22:35.391Z,243.28
2023-05-05T04:23:35.392Z,244.98
2023-05-05T04:24:35.364Z,246.29
2023-05-05T04:25:35.406Z,245.13
2023-05-05T04:26:35.390Z,246.71
2023-05-05T04:27:35.409Z,248.69
2023-05-05T04:28:35.400Z,248.55
2023-05-05T04:29:35.424Z,247.94
2023-05-05T04:30:35.487Z,248.89
2023-05-05T04:31:35.529Z,248.32
2023-05-05T04:32:35.510Z,246.89
2023-05-05T04:33:35.557Z,246.72
2023-05-05T04:34:35.542Z,246.26
2023-05-05T04:35:35.558Z,244.79
2023-05-05T04:36:35.569Z,246.68
2023-05-05T04:37:35.610Z,246.20
2023-05-05T04:38:35.679Z,246.38
2023-05-05T04:39:35.711Z,246.07
2023-05-05T04:40:35.721Z,245.73
2023-05-05T04:41:35.753Z,246.63
2023-05-05T04:42:35.795Z,248.08
2023-05-05T04:43:35.866Z,250.07
2023-05-05T04:44:35.813Z,250.21
2023-05-05T04:45:35.795Z,249.82
2023-05-05T04:46:35.862Z,250.60
2023-05-05T04:47:35.868Z,253.34
2023-05-05T04:48:35.856Z,249.81
2023-05-05T04:49:35.862Z,248.78
2023-05-05T04:50:35.877Z,249.22
2023-05-05T04:51:35.971Z,249.94
2023-05-05T04:52:35.954Z,249.90
2023-05-05T04:53:35.996Z,248.64
2023-05-05T04:54:36.021Z,247.89
2023-05-05T04:55:36.008Z,246.04
2023-05-05T04:56:36.061Z,244.43
2023-05-05T04:57:36.123Z,242.30
2023-05-05T04:58:36.140Z,238.66
2023-05-05T04:59:36.149Z,238.21
2023-05-05T05:00:36.178Z,236.87
2023-05-05T05:01:49.670Z,235.76
2023-05-05T05:02:36.223Z,235.79
2023-05-05T05:03:36.582Z,235.88
2023-05-05T05:04:36.196Z,236.60
2023-05-05T05:05:36.190Z,238.20
2023-05-05T05:06:36.128Z,240.46
2023-05-05T05:07:36.148Z,242.69
2023-05-05T05:08:36.143Z,243.57
2023-05-05T05:09:36.104Z,244.56
2023-05-05T05:10:36.153Z,245.49
2023-05-05T05:11:36.118Z,244.95
2023-05-05T05:12:36.208Z,243.62
2023-05-05T05:13:36.076Z,243.35
2023-05-05T05:14:36.086Z,243.98
2023-05-05T05:15:36.098Z,243.91
2023-05-05T05:16:36.260Z,244.79
2023-05-05T05:17:36.108Z,244.84
2023-05-05T05:18:36.060Z,244.35
2023-05-05T05:19:36.070Z,244.03
2023-05-05T05:20:36.026Z,244.00
2023-05-05T05:21:36.127Z,245.03
2023-05-05T05:22:36.147Z,243.84
2023-05-05T05:23:36.146Z,244.52
2023-05-05T05:24:36.106Z,244.21
2023-05-05T05:25:36.115Z,245.50
2023-05-05T05:26:36.211Z,247.83
2023-05-05T05:27:36.173Z,248.51
2023-05-05T05:28:36.237Z,250.00
2023-05-05T05:29:36.284Z,250.00
2023-05-05T05:30:36.251Z,249.11
2023-05-05T05:31:36.847Z,247.95
2023-05-05T05:32:36.313Z,247.11
2023-05-05T05:33:36.273Z,245.62
2023-05-05T05:34:36.292Z,242.48
2023-05-05T05:35:36.392Z,241.23
2023-05-05T05:36:36.738Z,241.86
2023-05-05T05:37:36.400Z,242.09
2023-05-05T05:38:36.481Z,242.67
2023-05-05T05:39:36.297Z,242.32
2023-05-05T05:40:36.546Z,239.39
2023-05-05T05:41:36.457Z,233.85
2023-05-05T05:42:36.489Z,231.20
2023-05-05T05:43:36.571Z,226.15
2023-05-05T05:44:36.606Z,223.90
2023-05-05T05:46:46.392Z,225.44
2023-05-05T05:47:36.709Z,225.62
2023-05-05T05:48:36.631Z,226.70
2023-05-05T05:49:36.637Z,227.91
2023-05-05T05:50:36.609Z,228.74
2023-05-05T05:51:36.603Z,224.20
2023-05-05T05:52:36.710Z,224.44
2023-05-05T05:53:36.714Z,221.71
2023-05-05T05:54:36.608Z,216.87
2023-05-05T05:55:36.632Z,216.88
2023-05-05T05:56:36.614Z,216.98
2023-05-05T05:57:36.672Z,212.30
2023-05-05T05:58:36.598Z,213.65
2023-05-05T05:59:36.543Z,213.53
2023-05-05T06:00:36.568Z,215.95
2023-05-05T06:01:36.551Z,210.04
2023-05-05T06:02:36.677Z,208.87
2023-05-05T06:03:36.612Z,210.37
2023-05-05T06:04:36.678Z,209.45
2023-05-05T06:05:36.530Z,211.40
2023-05-05T06:06:36.588Z,213.46
2023-05-05T06:07:36.588Z,210.66
2023-05-05T06:08:36.484Z,211.03
2023-05-05T06:09:36.518Z,212.77
2023-05-05T06:10:36.471Z,210.78
2023-05-05T06:11:36.664Z,206.99
2023-05-05T06:12:36.529Z,198.65
2023-05-05T06:13:36.448Z,198.55
2023-05-05T06:14:36.529Z,196.57
2023-05-05T06:15:36.494Z,198.81
2023-05-05T06:16:36.446Z,195.32
2023-05-05T06:17:36.518Z,195.42
2023-05-05T06:18:36.455Z,192.22
2023-05-05T06:19:36.422Z,188.25
2023-05-05T06:20:36.469Z,188.61
2023-05-05T06:21:36.388Z,195.03
2023-05-05T06:22:36.441Z,192.88
2023-05-05T06:23:36.398Z,184.17
2023-05-05T06:24:36.416Z,183.38
2023-05-05T06:25:36.419Z,178.17
2023-05-05T06:26:36.403Z,174.39
2023-05-05T06:27:36.352Z,175.40
2023-05-05T06:28:36.401Z,168.24
2023-05-05T06:29:36.434Z,169.78
2023-05-05T06:30:36.539Z,148.17
2023-05-05T06:31:36.586Z,146.48
2023-05-05T06:32:36.615Z,157.68
2023-05-05T06:33:36.579Z,174.88
2023-05-05T06:34:36.584Z,180.82
2023-05-05T06:35:36.686Z,182.80
2023-05-05T06:36:36.809Z,187.84
2023-05-05T06:37:36.810Z,190.44
2023-05-05T06:38:36.779Z,180.31
2023-05-05T06:39:36.772Z,176.45
2023-05-05T06:40:36.810Z,174.28
2023-05-05T06:41:36.789Z,173.54
2023-05-05T06:42:36.758Z,165.49
2023-05-05T06:43:36.825Z,167.45
2023-05-05T06:44:36.778Z,167.83
2023-05-05T06:45:36.853Z,160.45
2023-05-05T06:46:36.828Z,151.61
2023-05-05T06:47:37.899Z,140.45
2023-05-05T06:48:36.859Z,137.67
2023-05-05T06:49:36.779Z,140.29
2023-05-05T06:50:37.964Z,143.55
2023-05-05T06:51:36.810Z,140.08
2023-05-05T06:52:37.209Z,138.36
2023-05-05T06:53:36.798Z,126.23
2023-05-05T06:54:36.813Z,126.07
2023-05-05T06:55:36.757Z,125.57
2023-05-05T06:56:36.730Z,125.88
2023-05-05T06:57:36.789Z,123.01
2023-05-05T06:58:36.782Z,121.32
2023-05-05T06:59:36.754Z,119.13
2023-05-05T07:00:36.816Z,118.42
2023-05-05T07:01:36.776Z,118.14
2023-05-05T07:02:37.364Z,111.69
2023-05-05T07:03:36.689Z,102.20
2023-05-05T07:04:36.819Z,102.95
2023-05-05T07:05:36.806Z,106.65
2023-05-05T07:06:36.843Z,108.78
2023-05-05T07:07:36.839Z,114.21
2023-05-05T07:08:36.777Z,117.81
2023-05-05T07:09:36.985Z,114.67
2023-05-05T07:10:36.945Z,111.24
2023-05-05T07:11:36.950Z,109.10
2023-05-05T07:12:37.065Z,111.34
2023-05-05T07:13:37.047Z,112.90
2023-05-05T07:14:36.955Z,101.33
2023-05-05T07:15:37.071Z,101.96
2023-05-05T07:16:37.231Z,107.99
2023-05-05T07:17:37.269Z,106.51
2023-05-05T07:18:37.152Z,103.81
2023-05-05T07:19:37.161Z,98.23
2023-05-05T07:20:37.443Z,89.71
2023-05-05T07:21:37.215Z,86.56
2023-05-05T07:22:37.414Z,83.71
2023-05-05T07:23:37.442Z,81.92
2023-05-05T07:24:37.524Z,85.03
2023-05-05T07:25:37.447Z,89.45
2023-05-05T07:26:37.343Z,93.21
2023-05-05T07:27:37.752Z,95.83
2023-05-05T07:28:37.976Z,93.25
2023-05-05T07:29:37.591Z,91.57
2023-05-05T07:30:37.699Z,93.07
2023-05-05T07:31:37.744Z,92.91
2023-05-05T07:32:37.831Z,90.09
2023-05-05T07:33:37.762Z,88.79
2023-05-05T07:34:37.781Z,81.48
2023-05-05T07:35:37.833Z,88.72
2023-05-05T07:36:37.900Z,95.99
2023-05-05T07:37:38.239Z,93.92
2023-05-05T07:38:37.932Z,80.59
2023-05-05T07:39:38.009Z,70.35
2023-05-05T07:40:38.036Z,70.80
2023-05-05T07:41:38.062Z,70.29
2023-05-05T07:42:38.127Z,65.12
2023-05-05T07:43:39.297Z,59.76
2023-05-05T07:44:38.246Z,64.70
2023-05-05T07:45:38.301Z,53.31
2023-05-05T07:46:38.298Z,50.07
2023-05-05T07:47:38.394Z,48.71
2023-05-05T07:48:38.334Z,56.05
2023-05-05T07:49:38.339Z,56.71
2023-05-05T07:50:38.428Z,58.41
2023-05-05T07:51:38.415Z,61.72
2023-05-05T07:53:39.475Z,47.90
2023-05-05T07:54:38.542Z,51.01
2023-05-05T07:55:38.464Z,52.26
2023-05-05T07:56:38.383Z,48.49
2023-05-05T07:57:38.404Z,56.31
2023-05-05T07:58:38.475Z,68.42
2023-05-05T07:59:38.406Z,54.82
2023-05-05T08:00:38.431Z,48.70
2023-05-05T08:01:38.371Z,47.65
2023-05-05T08:02:38.490Z,52.54
2023-05-05T08:03:38.941Z,56.98
2023-05-05T08:04:38.574Z,55.75
2023-05-05T08:05:38.400Z,57.11
2023-05-05T08:06:38.433Z,58.68
2023-05-05T08:07:38.351Z,59.47
2023-05-05T08:08:38.456Z,62.29
2023-05-05T08:09:38.552Z,70.09
2023-05-05T08:10:38.653Z,77.06
2023-05-05T08:11:38.675Z,79.90
2023-05-05T08:12:38.615Z,80.43
2023-05-05T08:13:38.772Z,74.03
2023-05-05T08:14:38.712Z,73.77
2023-05-05T08:15:38.782Z,67.12
2023-05-05T08:16:38.796Z,50.61
2023-05-05T08:17:38.917Z,44.71
2023-05-05T08:18:38.925Z,41.15
2023-05-05T08:19:39.026Z,44.28
2023-05-05T08:20:39.013Z,34.78
2023-05-05T08:21:38.976Z,30.31
2023-05-05T08:22:38.979Z,24.51
2023-05-05T08:23:39.046Z,29.50
2023-05-05T08:24:38.987Z,32.83
2023-05-05T08:25:39.066Z,29.56
2023-05-05T08:26:39.169Z,29.30
2023-05-05T08:27:39.215Z,29.89
2023-05-05T08:28:39.290Z,25.92
2023-05-05T08:29:39.301Z,28.72
2023-05-05T08:30:39.375Z,22.35
2023-05-05T08:31:39.382Z,22.75
2023-05-05T08:32:39.409Z,22.17
2023-05-05T08:33:39.800Z,24.37
2023-05-05T08:34:39.417Z,21.44
2023-05-05T08:35:39.473Z,25.25
2023-05-05T08:36:39.579Z,25.82
2023-05-05T08:37:39.593Z,25.66
2023-05-05T08:38:39.676Z,25.01
2023-05-05T08:39:39.610Z,25.81
2023-05-05T08:40:39.602Z,33.97
2023-05-05T08:41:39.676Z,52.81
2023-05-05T08:42:39.797Z,56.98
2023-05-05T08:43:39.800Z,53.34
2023-05-05T08:44:39.727Z,51.86
2023-05-05T08:45:39.762Z,52.61
2023-05-05T08:46:40.004Z,45.01
2023-05-05T08:47:39.934Z,46.55
2023-05-05T08:48:40.265Z,60.11
2023-05-05T08:49:39.977Z,61.45
2023-05-05T08:50:39.985Z,69.11
2023-05-05T08:51:40.059Z,49.83
2023-05-05T08:52:40.322Z,49.63
2023-05-05T08:53:40.250Z,53.27
2023-05-05T08:54:40.236Z,59.02
2023-05-05T08:55:41.217Z,53.86
2023-05-05T08:56:40.310Z,52.72
2023-05-05T08:57:40.468Z,53.50
2023-05-05T08:58:40.350Z,52.94
2023-05-05T08:59:40.385Z,54.43
2023-05-05T09:00:40.394Z,44.47
2023-05-05T09:01:40.400Z,48.01
2023-05-05T09:02:40.516Z,63.97
2023-05-05T09:03:40.913Z,94.30
2023-05-05T09:04:40.431Z,111.18
2023-05-05T09:05:40.460Z,88.74
2023-05-05T09:06:40.459Z,70.67
2023-05-05T09:07:40.506Z,54.92
2023-05-05T09:08:40.805Z,57.82
2023-05-05T09:09:40.472Z,73.74
2023-05-05T09:10:40.496Z,69.63
2023-05-05T09:11:40.533Z,43.35
2023-05-05T09:12:40.749Z,38.24
2023-05-05T09:13:40.967Z,39.29
2023-05-05T09:14:40.739Z,32.91
2023-05-05T09:15:40.784Z,28.17
2023-05-05T09:16:40.851Z,29.18
2023-05-05T09:17:40.786Z,38.15
2023-05-05T09:18:40.874Z,40.22
2023-05-05T09:19:40.965Z,41.30
2023-05-05T09:20:40.894Z,34.45
2023-05-05T09:21:40.918Z,30.93
2023-05-05T09:22:41.163Z,32.02
2023-05-05T09:23:41.037Z,38.10
2023-05-05T09:24:41.209Z,54.47
2023-05-05T09:25:41.206Z,77.01
2023-05-05T09:26:41.146Z,64.68
2023-05-05T09:27:41.058Z,54.61
2023-05-05T09:28:41.257Z,43.70
2023-05-05T09:29:41.229Z,30.90
2023-05-05T09:30:41.318Z,21.98
2023-05-05T09:31:41.302Z,24.06
2023-05-05T09:32:41.425Z,25.63
2023-05-05T09:33:42.774Z,25.00
2023-05-05T09:34:42.276Z,25.38
2023-05-05T09:35:41.379Z,26.30
2023-05-05T09:36:41.886Z,23.34
2023-05-05T09:37:41.423Z,28.00
2023-05-05T09:38:41.473Z,34.78
2023-05-05T09:39:41.552Z,47.17
2023-05-05T09:40:41.585Z,55.77
2023-05-05T09:41:41.640Z,87.89
2023-05-05T09:42:41.702Z,82.10
2023-05-05T09:43:41.792Z,78.71
2023-05-05T09:44:41.691Z,61.33
2023-05-05T09:45:41.854Z,51.19
2023-05-05T09:46:41.823Z,57.65
2023-05-05T09:47:41.874Z,60.05
2023-05-05T09:48:42.292Z,56.61
2023-05-05T09:49:41.808Z,54.59
2023-05-05T09:50:41.914Z,39.95
2023-05-05T09:51:41.795Z,42.90
2023-05-05T09:52:42.013Z,41.67
2023-05-05T09:53:42.070Z,52.70
2023-05-05T09:54:41.968Z,61.64
2023-05-05T09:55:41.980Z,49.57
2023-05-05T09:56:42.486Z,41.82
2023-05-05T09:57:42.164Z,38.44
2023-05-05T09:58:42.326Z,39.66
2023-05-05T09:59:42.162Z,42.84
2023-05-05T10:00:42.280Z,43.87
2023-05-05T10:01:42.224Z,37.31
2023-05-05T10:02:42.351Z,39.38
2023-05-05T10:03:42.777Z,41.37
2023-05-05T10:04:42.416Z,46.10
2023-05-05T10:05:42.483Z,39.15
2023-05-05T10:06:42.509Z,34.94
2023-05-05T10:07:42.503Z,37.72
2023-05-05T10:08:42.623Z,44.57
2023-05-05T10:09:42.659Z,52.64
2023-05-05T10:10:42.722Z,40.68
2023-05-05T10:11:42.623Z,36.91
2023-05-05T10:12:42.762Z,41.01
2023-05-05T10:13:42.743Z,38.02
2023-05-05T10:14:42.753Z,40.01
2023-05-05T10:15:42.748Z,36.57
2023-05-05T10:16:42.866Z,32.39
2023-05-05T10:17:53.951Z,38.22
2023-05-05T10:18:43.961Z,29.46
2023-05-05T10:19:42.905Z,18.30
2023-05-05T10:20:42.881Z,13.61
2023-05-05T10:21:42.881Z,11.56
2023-05-05T10:22:42.888Z,20.51
2023-05-05T10:23:42.884Z,24.02
2023-05-05T10:24:42.971Z,25.04
2023-05-05T10:25:42.846Z,25.97
2023-05-05T10:26:42.902Z,27.73
2023-05-05T10:27:42.841Z,26.34
2023-05-05T10:28:43.288Z,20.45
2023-05-05T10:29:42.872Z,19.50
2023-05-05T10:30:42.951Z,21.28
2023-05-05T10:31:43.022Z,26.85
2023-05-05T10:33:43.185Z,29.38
2023-05-05T10:34:43.087Z,41.16
2023-05-05T10:35:43.087Z,40.75
2023-05-05T10:36:42.996Z,51.09
2023-05-05T10:37:43.030Z,50.23
2023-05-05T10:38:43.292Z,38.32
2023-05-05T10:39:42.973Z,33.39
2023-05-05T10:40:42.961Z,30.90
2023-05-05T10:41:43.608Z,31.06
2023-05-05T10:42:42.944Z,31.12
2023-05-05T10:43:43.299Z,31.61
2023-05-05T10:44:42.922Z,31.46
2023-05-05T10:45:43.123Z,29.64
2023-05-05T10:46:43.078Z,29.95
2023-05-05T10:47:43.114Z,25.03
2023-05-05T10:48:43.200Z,42.49
2023-05-05T10:49:43.326Z,52.31
2023-05-05T10:50:43.299Z,52.85
2023-05-05T10:51:43.395Z,34.84
2023-05-05T10:52:43.482Z,34.73
2023-05-05T10:53:43.411Z,107.19
2023-05-05T10:54:43.390Z,58.27
2023-05-05T10:55:43.454Z,50.37
2023-05-05T10:56:43.545Z,36.80
2023-05-05T10:57:43.569Z,36.38
2023-05-05T10:58:59.115Z,26.95
2023-05-05T10:59:44.634Z,27.02
2023-05-05T11:00:43.632Z,28.39
2023-05-05T11:01:44.107Z,28.10
2023-05-05T11:02:43.609Z,38.18
2023-05-05T11:03:43.640Z,44.20
2023-05-05T11:04:43.585Z,45.39
2023-05-05T11:05:43.570Z,40.86
2023-05-05T11:06:43.592Z,37.00
2023-05-05T11:07:43.533Z,35.36
2023-05-05T11:08:43.545Z,39.52
2023-05-05T11:09:43.548Z,37.18
2023-05-05T11:10:43.556Z,42.45
2023-05-05T11:11:43.605Z,43.70
2023-05-05T11:12:43.668Z,56.90
2023-05-05T11:13:43.660Z,58.55
2023-05-05T11:14:43.826Z,44.33
2023-05-05T11:15:43.692Z,40.87
2023-05-05T11:16:43.783Z,36.32
2023-05-05T11:17:43.755Z,34.84
2023-05-05T11:18:43.708Z,42.18
2023-05-05T11:19:43.729Z,64.51
2023-05-05T11:20:43.776Z,32.45
2023-05-05T11:21:43.749Z,50.21
2023-05-05T11:22:43.850Z,49.50
2023-05-05T11:23:43.744Z,39.53
2023-05-05T11:24:43.767Z,29.10
2023-05-05T11:25:43.859Z,29.96
2023-05-05T11:26:43.969Z,28.78
2023-05-05T11:27:43.953Z,22.41
2023-05-05T11:28:43.914Z,24.19
2023-05-05T11:29:43.995Z,28.43
2023-05-05T11:30:44.048Z,26.55
2023-05-05T11:31:43.948Z,30.28
2023-05-05T11:32:44.060Z,42.82
2023-05-05T11:33:44.112Z,50.84
2023-05-05T11:34:44.330Z,40.42
2023-05-05T11:35:44.227Z,33.63
2023-05-05T11:36:44.271Z,28.36
2023-05-05T11:37:44.956Z,26.41
2023-05-05T11:38:44.304Z,27.14
2023-05-05T11:39:44.787Z,24.18
2023-05-05T11:40:44.381Z,27.76
2023-05-05T11:41:44.380Z,27.42
2023-05-05T11:42:44.316Z,29.67
2023-05-05T11:43:44.429Z,29.62
2023-05-05T11:44:44.501Z,36.35
2023-05-05T11:45:44.465Z,29.43
2023-05-05T11:46:44.636Z,20.36
2023-05-05T11:47:44.583Z,14.04
2023-05-05T11:48:44.527Z,16.22
2023-05-05T11:49:44.734Z,24.45
2023-05-05T11:50:44.642Z,26.56
2023-05-05T11:51:44.645Z,26.76
2023-05-05T11:52:44.694Z,23.32
2023-05-05T11:53:44.606Z,47.98
2023-05-05T11:54:44.822Z,41.15
2023-05-05T11:55:44.704Z,40.66
2023-05-05T11:56:44.785Z,28.05
2023-05-05T11:57:44.734Z,30.05
2023-05-05T11:58:45.815Z,33.31
2023-05-05T11:59:44.904Z,35.16
2023-05-05T12:00:44.855Z,35.15
2023-05-05T12:01:44.879Z,46.34
2023-05-05T12:02:45.196Z,42.36
2023-05-05T12:03:45.101Z,44.00
2023-05-05T12:04:44.987Z,36.68
2023-05-05T12:05:45.003Z,39.11
2023-05-05T12:06:45.079Z,48.76
2023-05-05T12:07:45.166Z,36.95
2023-05-05T12:08:45.180Z,27.09
2023-05-05T12:09:45.281Z,25.00
2023-05-05T12:10:45.248Z,25.15
2023-05-05T12:11:45.307Z,28.57
2023-05-05T12:12:45.287Z,28.81
2023-05-05T12:13:45.337Z,30.90
2023-05-05T12:14:45.351Z,30.13
2023-05-05T12:15:45.361Z,54.03
2023-05-05T12:16:45.408Z,31.04
2023-05-05T12:17:45.383Z,26.62
2023-05-05T12:18:45.385Z,27.95
2023-05-05T12:19:45.410Z,28.28
2023-05-05T12:20:45.468Z,39.48
2023-05-05T12:21:45.498Z,23.99
2023-05-05T12:22:45.506Z,29.06
2023-05-05T12:23:45.532Z,23.71
2023-05-05T12:24:45.616Z,35.41
2023-05-05T12:25:45.647Z,42.20
2023-05-05T12:26:45.726Z,44.06
2023-05-05T12:27:45.703Z,30.73
2023-05-05T12:28:45.744Z,41.33
2023-05-05T12:29:45.866Z,36.73
2023-05-05T12:30:45.803Z,36.61
2023-05-05T12:31:45.834Z,27.91
2023-05-05T12:32:45.919Z,33.69
2023-05-05T12:33:45.892Z,42.54
2023-05-05T12:34:45.919Z,30.58
2023-05-05T12:35:45.911Z,28.96
2023-05-05T12:36:45.936Z,26.86
2023-05-05T12:37:45.948Z,24.28
2023-05-05T12:38:46.032Z,26.86
2023-05-05T12:39:46.205Z,27.78
2023-05-05T12:40:46.177Z,39.51
2023-05-05T12:41:46.148Z,29.84